Time;durP1;ratioP1;P1;durP2;ratioP2;P2;SDS_P1;SDS_P2;PMS_P1;PMS_P2;Temp;Humidity;BMP_temperature;BMP_pressure;BME280_temperature;BME280_humidity;BME280_pressure;Samples;Min_cycle;Max_cycle;Signal;HPM_P1;HPM_P2
2020/12/27 00:00:32;;;;;;;5.20;4.13;;;-2.00;94.60;;;;;;5021507;28;20180;-73
2020/12/27 00:02:58;;;;;;;6.30;4.60;;;-2.00;94.70;;;;;;5042116;28;20242;-73
2020/12/27 00:05:23;;;;;;;5.97;4.37;;;-2.00;94.90;;;;;;5041720;28;20224;-72
2020/12/27 00:07:49;;;;;;;6.67;4.70;;;-2.00;94.90;;;;;;5040035;28;20187;-72
2020/12/27 00:10:15;;;;;;;5.23;3.93;;;-2.00;95.10;;;;;;5021608;28;20282;-73
2020/12/27 00:12:40;;;;;;;5.40;3.83;;;-2.00;95.20;;;;;;5041416;28;20200;-72
2020/12/27 00:15:06;;;;;;;6.87;4.47;;;-2.00;95.20;;;;;;5042079;28;20180;-74
2020/12/27 00:17:32;;;;;;;6.23;4.70;;;-2.00;95.20;;;;;;5022466;28;20673;-74
2020/12/27 00:20:04;;;;;;;6.03;4.43;;;-1.90;95.10;;;;;;5039090;28;20196;-73
2020/12/27 00:22:29;;;;;;;5.57;4.47;;;-1.90;95.10;;;;;;5036273;28;20196;-73
2020/12/27 00:24:55;;;;;;;6.50;4.53;;;-1.90;95.10;;;;;;5021315;28;20178;-73
2020/12/27 00:27:20;;;;;;;6.80;4.87;;;-2.00;95.10;;;;;;5022786;28;20187;-73
2020/12/27 00:29:46;;;;;;;6.17;5.10;;;-2.10;95.20;;;;;;5042435;28;20248;-73
2020/12/27 00:32:12;;;;;;;5.63;4.97;;;-2.20;95.30;;;;;;5037131;28;20222;-74
2020/12/27 00:34:38;;;;;;;4.73;4.30;;;-2.20;95.40;;;;;;5043066;28;20364;-73
2020/12/27 00:37:03;;;;;;;7.00;5.33;;;-2.20;95.60;;;;;;5045375;28;20603;-73
2020/12/27 00:39:29;;;;;;;6.87;4.93;;;-2.10;95.90;;;;;;5033679;28;20593;-72
2020/12/27 00:41:59;;;;;;;5.73;4.53;;;-2.10;95.80;;;;;;5042923;28;20230;-73
2020/12/27 00:44:25;;;;;;;5.37;4.50;;;-2.20;95.80;;;;;;5041528;28;20259;-74
2020/12/27 00:46:50;;;;;;;6.67;4.80;;;-2.20;95.70;;;;;;5046774;28;20191;-74
2020/12/27 00:49:20;;;;;;;11.17;4.93;;;-2.20;95.80;;;;;;5044738;28;20183;-73
2020/12/27 00:51:45;;;;;;;7.63;5.17;;;-2.10;95.60;;;;;;5039696;28;20776;-74
2020/12/27 00:54:12;;;;;;;5.73;4.70;;;-2.20;95.60;;;;;;5040008;28;20244;-73
2020/12/27 00:56:38;;;;;;;7.57;5.00;;;-2.20;95.80;;;;;;5046801;28;20178;-75
2020/12/27 00:59:03;;;;;;;6.97;5.27;;;-2.30;95.80;;;;;;5043984;28;20654;-74
2020/12/27 01:01:29;;;;;;;7.60;5.03;;;-2.30;96.10;;;;;;5052691;28;20188;-73
2020/12/27 01:03:55;;;;;;;7.93;5.33;;;-2.30;96.40;;;;;;5048057;28;20209;-73
2020/12/27 01:06:28;;;;;;;8.77;5.07;;;-2.30;96.50;;;;;;5024249;28;20218;-73
2020/12/27 01:08:54;;;;;;;5.40;4.53;;;-2.30;96.70;;;;;;5043530;28;20196;-74
2020/12/27 01:11:20;;;;;;;6.97;5.47;;;-2.20;96.00;;;;;;5044408;28;20348;-72
2020/12/27 01:13:46;;;;;;;4.97;4.47;;;-2.10;95.90;;;;;;5043270;28;20789;-73
2020/12/27 01:16:12;;;;;;;6.10;5.23;;;-2.00;95.70;;;;;;5046286;28;20193;-75
2020/12/27 01:18:48;;;;;;;6.50;4.70;;;-2.00;95.60;;;;;;5047961;28;20175;-74
2020/12/27 01:21:35;;;;;;;7.10;4.90;;;-2.00;95.60;;;;;;5042698;28;20184;-74
2020/12/27 01:24:01;;;;;;;5.90;4.23;;;-1.90;95.50;;;;;;5046946;28;20280;-74
2020/12/27 01:26:31;;;;;;;6.53;4.60;;;-1.90;95.40;;;;;;5044863;28;20227;-73
2020/12/27 01:28:57;;;;;;;8.27;5.00;;;-1.80;95.40;;;;;;5027627;28;20186;-73
2020/12/27 01:31:23;;;;;;;5.20;4.67;;;-1.80;95.30;;;;;;5043850;28;20197;-73
2020/12/27 01:33:50;;;;;;;6.40;4.40;;;-1.70;95.20;;;;;;5045609;28;20220;-73
2020/12/27 01:36:33;;;;;;;7.03;4.80;;;-1.70;95.10;;;;;;5043875;28;20188;-73
2020/12/27 01:39:00;;;;;;;4.77;4.27;;;-1.70;95.00;;;;;;5041930;28;20176;-74
2020/12/27 01:41:26;;;;;;;8.23;5.50;;;-1.80;95.10;;;;;;5023968;28;20190;-74
2020/12/27 01:44:05;;;;;;;6.77;4.90;;;-1.90;95.20;;;;;;5042661;28;20716;-74
2020/12/27 01:46:32;;;;;;;5.50;4.90;;;-2.00;95.20;;;;;;5041986;28;20194;-74
2020/12/27 01:48:58;;;;;;;5.63;4.57;;;-2.00;95.20;;;;;;5042343;28;20545;-74
2020/12/27 01:51:24;;;;;;;6.37;4.60;;;-1.90;95.00;;;;;;5043550;28;20190;-74
2020/12/27 01:53:50;;;;;;;6.57;5.27;;;-1.90;95.00;;;;;;5027611;28;20212;-75
2020/12/27 01:56:26;;;;;;;6.30;5.10;;;-1.90;94.80;;;;;;5041502;28;20210;-75
2020/12/27 01:58:58;;;;;;;6.77;5.50;;;-1.90;94.80;;;;;;5038955;28;20181;-74
2020/12/27 02:01:23;;;;;;;9.53;6.40;;;-2.00;95.10;;;;;;5047936;28;20211;-74
2020/12/27 02:03:49;;;;;;;7.77;5.97;;;-2.00;95.50;;;;;;5043804;28;20216;-73
2020/12/27 02:06:15;;;;;;;7.73;6.27;;;-2.10;95.80;;;;;;5024339;28;20185;-73
2020/12/27 02:08:41;;;;;;;6.60;5.90;;;-2.10;96.00;;;;;;5044727;28;20626;-74
2020/12/27 02:11:07;;;;;;;6.30;5.50;;;-2.20;96.20;;;;;;5045008;28;20189;-73
2020/12/27 02:13:32;;;;;;;8.70;6.13;;;-2.20;96.10;;;;;;5044722;28;20723;-73
2020/12/27 02:15:58;;;;;;;8.27;5.83;;;-2.20;95.80;;;;;;5040989;28;20195;-74
2020/12/27 02:18:24;;;;;;;7.70;6.60;;;-2.10;95.90;;;;;;5041861;28;20299;-74
2020/12/27 02:20:49;;;;;;;10.57;6.10;;;-2.20;96.40;;;;;;5042905;28;20700;-73
2020/12/27 02:23:17;;;;;;;9.73;6.40;;;-2.20;96.80;;;;;;5045583;28;20195;-74
2020/12/27 02:25:42;;;;;;;9.07;6.87;;;-2.30;97.00;;;;;;5048739;28;20259;-72
2020/12/27 02:28:08;;;;;;;10.93;8.80;;;-2.30;97.30;;;;;;5045759;28;20214;-74
2020/12/27 02:30:34;;;;;;;12.00;8.10;;;-2.40;97.50;;;;;;5037317;28;20282;-74
2020/12/27 02:32:59;;;;;;;11.57;8.17;;;-2.50;97.80;;;;;;5039763;28;20208;-73
2020/12/27 02:35:25;;;;;;;13.07;10.00;;;-2.50;98.20;;;;;;5042499;28;20186;-73
2020/12/27 02:37:50;;;;;;;10.87;8.63;;;-2.50;98.60;;;;;;5040328;28;20190;-73
2020/12/27 02:40:16;;;;;;;11.20;8.73;;;-2.60;98.70;;;;;;5049028;28;20183;-73
2020/12/27 02:42:42;;;;;;;10.87;8.93;;;-2.60;98.90;;;;;;5041098;28;20216;-74
2020/12/27 02:45:10;;;;;;;10.40;8.30;;;-2.60;98.50;;;;;;5042860;28;20658;-74
2020/12/27 02:47:39;;;;;;;9.30;8.00;;;-2.70;98.60;;;;;;5037037;28;20190;-73
2020/12/27 02:50:15;;;;;;;11.40;8.37;;;-2.70;98.40;;;;;;5047982;28;20689;-72
2020/12/27 02:52:41;;;;;;;11.53;8.33;;;-2.70;98.40;;;;;;5043194;28;20206;-74
2020/12/27 02:55:08;;;;;;;13.60;8.53;;;-2.70;98.70;;;;;;5044579;28;20194;-73
2020/12/27 02:57:34;;;;;;;10.40;8.20;;;-2.70;98.70;;;;;;5049084;28;20211;-73
2020/12/27 03:00:00;;;;;;;10.90;8.63;;;-2.70;99.10;;;;;;5044830;28;20624;-73
2020/12/27 03:02:25;;;;;;;10.37;7.90;;;-2.70;98.90;;;;;;5048360;28;20257;-73
2020/12/27 03:04:51;;;;;;;9.50;7.53;;;-2.70;98.90;;;;;;5038656;28;20279;-73
2020/12/27 03:07:16;;;;;;;13.23;8.33;;;-2.70;99.00;;;;;;5027153;28;20214;-73
2020/12/27 03:09:42;;;;;;;10.73;8.80;;;-2.70;99.20;;;;;;5039258;28;20562;-73
2020/12/27 03:12:08;;;;;;;9.03;7.37;;;-2.70;98.90;;;;;;5042897;28;20188;-73
2020/12/27 03:14:33;;;;;;;14.27;8.17;;;-2.70;98.60;;;;;;5038017;28;20609;-72
2020/12/27 03:16:59;;;;;;;12.10;8.10;;;-2.70;98.60;;;;;;5043774;28;20684;-72
2020/12/27 03:19:24;;;;;;;11.17;7.33;;;-2.70;98.70;;;;;;5038783;28;20183;-74
2020/12/27 03:21:50;;;;;;;10.53;7.43;;;-2.70;98.60;;;;;;5044020;28;20203;-72
2020/12/27 03:24:15;;;;;;;10.27;7.83;;;-2.70;98.80;;;;;;5036744;28;20698;-74
2020/12/27 03:26:41;;;;;;;9.97;7.80;;;-2.70;98.60;;;;;;5027923;28;20192;-72
2020/12/27 03:29:06;;;;;;;8.97;6.80;;;-2.80;98.60;;;;;;5041790;28;20282;-73
2020/12/27 03:31:32;;;;;;;9.53;7.47;;;-2.80;98.30;;;;;;5040710;28;20563;-72
2020/12/27 03:33:58;;;;;;;11.83;8.20;;;-2.70;98.10;;;;;;5023564;28;20218;-72
2020/12/27 03:36:23;;;;;;;10.47;7.50;;;-2.80;98.40;;;;;;5043936;28;20707;-72
2020/12/27 03:38:52;;;;;;;9.53;7.23;;;-2.80;98.30;;;;;;5041937;28;20187;-72
2020/12/27 03:41:20;;;;;;;10.17;7.50;;;-2.70;97.90;;;;;;5048597;28;20283;-73
2020/12/27 03:43:46;;;;;;;9.10;7.20;;;-2.70;97.80;;;;;;5044401;28;20210;-72
2020/12/27 03:46:12;;;;;;;11.30;7.63;;;-2.70;97.80;;;;;;5044511;28;20618;-72
2020/12/27 03:48:38;;;;;;;9.53;6.57;;;-2.80;98.00;;;;;;5042419;28;20195;-73
2020/12/27 03:51:04;;;;;;;9.90;7.00;;;-2.80;97.80;;;;;;5032729;28;20183;-72
2020/12/27 03:53:29;;;;;;;10.27;6.63;;;-2.80;97.50;;;;;;5044638;28;20208;-72
2020/12/27 03:55:55;;;;;;;7.23;6.30;;;-2.80;97.20;;;;;;5043859;28;20194;-72
2020/12/27 03:58:21;;;;;;;6.73;6.03;;;-2.70;97.00;;;;;;5041121;28;20237;-72
2020/12/27 04:00:46;;;;;;;8.20;6.80;;;-2.70;96.80;;;;;;5028044;28;20194;-72
2020/12/27 04:03:12;;;;;;;7.30;5.97;;;-2.70;96.60;;;;;;5042292;28;20216;-74
2020/12/27 04:05:37;;;;;;;7.67;6.30;;;-2.70;96.50;;;;;;5040898;28;20191;-73
2020/12/27 04:08:03;;;;;;;8.23;6.97;;;-2.70;96.70;;;;;;5041536;28;20183;-72
2020/12/27 04:10:28;;;;;;;7.43;6.53;;;-2.70;96.80;;;;;;5045639;28;20237;-71
2020/12/27 04:12:54;;;;;;;8.30;5.63;;;-2.60;96.70;;;;;;5044134;28;20563;-73
2020/12/27 04:15:19;;;;;;;9.10;6.70;;;-2.50;96.30;;;;;;5043623;28;20207;-74
2020/12/27 04:17:45;;;;;;;12.30;7.23;;;-2.40;96.00;;;;;;5043950;28;20177;-72
2020/12/27 04:20:11;;;;;;;7.53;6.23;;;-2.50;96.10;;;;;;5036684;28;20177;-73
2020/12/27 04:22:36;;;;;;;8.83;6.47;;;-2.50;96.10;;;;;;5039568;28;20213;-73
2020/12/27 04:25:02;;;;;;;7.83;6.40;;;-2.50;96.10;;;;;;5042987;28;20645;-73
2020/12/27 04:27:28;;;;;;;8.40;6.00;;;-2.50;95.90;;;;;;5049110;28;20180;-72
2020/12/27 04:29:53;;;;;;;7.53;6.63;;;-2.50;95.90;;;;;;5041580;28;20214;-74
2020/12/27 04:32:19;;;;;;;9.40;6.73;;;-2.50;96.20;;;;;;5045515;28;20257;-72
2020/12/27 04:34:45;;;;;;;9.23;6.50;;;-2.50;96.30;;;;;;5029443;28;20208;-72
2020/12/27 04:37:11;;;;;;;7.87;6.80;;;-2.60;96.40;;;;;;5052967;28;20254;-74
2020/12/27 04:39:36;;;;;;;9.87;6.53;;;-2.50;96.50;;;;;;5041777;28;20170;-74
2020/12/27 04:42:02;;;;;;;10.43;7.30;;;-2.60;96.50;;;;;;5037465;28;20199;-73
2020/12/27 04:44:28;;;;;;;8.73;6.53;;;-2.50;96.60;;;;;;5039149;28;20629;-73
2020/12/27 04:46:53;;;;;;;9.45;7.70;;;-2.60;96.70;;;;;;5044902;28;20477;-72
2020/12/27 04:49:20;;;;;;;9.23;7.30;;;-2.60;96.80;;;;;;5042196;28;20709;-73
2020/12/27 04:51:48;;;;;;;10.60;7.13;;;-2.60;96.60;;;;;;5024105;28;20667;-73
2020/12/27 04:54:13;;;;;;;7.53;6.33;;;-2.60;96.40;;;;;;5041959;28;20711;-73
2020/12/27 04:56:42;;;;;;;8.23;6.83;;;-2.60;96.20;;;;;;5046697;28;20183;-74
2020/12/27 04:59:08;;;;;;;7.53;6.10;;;-2.60;96.30;;;;;;5024678;28;20523;-74
2020/12/27 05:01:33;;;;;;;8.80;7.23;;;-2.60;96.40;;;;;;5044012;28;20181;-74
2020/12/27 05:03:59;;;;;;;9.40;6.90;;;-2.60;96.40;;;;;;5045251;28;20596;-74
2020/12/27 05:06:25;;;;;;;9.83;7.30;;;-2.60;96.60;;;;;;5051512;28;20228;-74
2020/12/27 05:08:51;;;;;;;8.83;6.70;;;-2.60;96.50;;;;;;5070066;28;20206;-73
2020/12/27 05:11:18;;;;;;;10.53;7.10;;;-2.60;96.60;;;;;;5064704;28;20168;-74
2020/12/27 05:13:45;;;;;;;7.77;6.67;;;-2.70;96.70;;;;;;5050556;28;20209;-73
2020/12/27 05:16:13;;;;;;;8.47;6.70;;;-2.70;96.60;;;;;;5051835;28;20325;-72
2020/12/27 05:18:39;;;;;;;9.13;7.03;;;-2.70;96.50;;;;;;5047431;28;20664;-72
2020/12/27 05:21:04;;;;;;;8.43;6.70;;;-2.80;96.40;;;;;;5045315;28;20195;-75
2020/12/27 05:23:30;;;;;;;9.87;7.33;;;-2.70;96.30;;;;;;5040470;28;20732;-75
2020/12/27 05:25:56;;;;;;;9.20;7.37;;;-2.70;96.30;;;;;;5048746;28;20185;-74
2020/12/27 05:28:23;;;;;;;8.30;7.03;;;-2.60;96.30;;;;;;5048021;28;20191;-72
2020/12/27 05:30:48;;;;;;;11.40;7.23;;;-2.60;95.80;;;;;;5038987;28;20184;-74
2020/12/27 05:33:15;;;;;;;9.97;7.90;;;-2.70;95.80;;;;;;5043730;28;20278;-74
2020/12/27 05:35:41;;;;;;;8.57;7.07;;;-2.70;96.00;;;;;;5039660;28;20216;-74
2020/12/27 05:38:08;;;;;;;10.00;7.40;;;-2.70;96.00;;;;;;5047034;28;20191;-72
2020/12/27 05:40:37;;;;;;;10.30;8.10;;;-2.70;96.10;;;;;;5029628;28;20272;-73
2020/12/27 05:43:16;;;;;;;11.10;7.87;;;-2.80;96.20;;;;;;5042102;28;20210;-72
2020/12/27 05:45:43;;;;;;;9.07;7.33;;;-2.80;96.40;;;;;;5041670;28;20186;-72
2020/12/27 05:48:09;;;;;;;10.87;7.17;;;-2.80;96.70;;;;;;5039416;28;20203;-72
2020/12/27 05:50:41;;;;;;;8.37;7.57;;;-2.80;96.30;;;;;;5043471;28;20198;-73
2020/12/27 05:53:15;;;;;;;9.37;7.53;;;-2.80;96.40;;;;;;5045372;28;20225;-73
2020/12/27 05:55:44;;;;;;;10.00;7.23;;;-2.80;96.30;;;;;;5041749;28;20180;-72
2020/12/27 05:58:10;;;;;;;9.67;7.33;;;-2.80;96.30;;;;;;5047246;28;20188;-72
2020/12/27 06:00:37;;;;;;;11.90;7.83;;;-2.70;96.30;;;;;;5036936;28;20674;-73
2020/12/27 06:03:03;;;;;;;12.30;7.67;;;-2.70;96.30;;;;;;5045377;28;20215;-75
2020/12/27 06:05:40;;;;;;;9.87;7.23;;;-2.70;96.20;;;;;;5039140;28;20457;-73
2020/12/27 06:08:36;;;;;;;9.93;7.77;;;-2.70;96.10;;;;;;5037752;28;20195;-72
2020/12/27 06:11:05;;;;;;;10.83;7.57;;;-2.80;96.60;;;;;;5039344;28;20225;-73
2020/12/27 06:14:01;;;;;;;7.60;6.80;;;-2.80;96.40;;;;;;5041026;28;20240;-74
2020/12/27 06:16:44;;;;;;;10.00;7.27;;;-2.80;96.70;;;;;;5048025;28;20184;-73
2020/12/27 06:19:38;;;;;;;7.27;6.50;;;-2.80;97.10;;;;;;5025194;28;20173;-73
2020/12/27 06:22:07;;;;;;;8.50;6.83;;;-2.70;97.00;;;;;;5048326;28;20200;-73
2020/12/27 06:24:37;;;;;;;9.73;7.50;;;-2.70;96.90;;;;;;5042946;28;20269;-73
2020/12/27 06:27:05;;;;;;;8.67;7.03;;;-2.70;96.70;;;;;;5043259;28;20185;-72
2020/12/27 06:29:48;;;;;;;7.60;6.57;;;-2.60;96.50;;;;;;5046104;28;20189;-74
2020/12/27 06:32:17;;;;;;;8.57;7.13;;;-2.50;96.30;;;;;;5044791;28;20703;-74
2020/12/27 06:34:43;;;;;;;9.63;7.70;;;-2.40;95.80;;;;;;5041215;28;20236;-74
2020/12/27 06:37:09;;;;;;;8.53;7.23;;;-2.30;95.80;;;;;;5029422;28;20203;-73
2020/12/27 06:39:34;;;;;;;9.90;7.93;;;-2.30;95.90;;;;;;5046180;28;20180;-73
2020/12/27 06:42:05;;;;;;;10.27;7.97;;;-2.20;95.70;;;;;;5044693;28;20219;-74
2020/12/27 06:44:43;;;;;;;9.00;7.43;;;-2.20;95.70;;;;;;5040880;28;20206;-74
2020/12/27 06:47:09;;;;;;;9.97;7.67;;;-2.30;95.80;;;;;;5043893;28;20187;-72
2020/12/27 06:49:35;;;;;;;8.50;7.63;;;-2.20;95.80;;;;;;5041119;28;20261;-72
2020/12/27 06:52:21;;;;;;;9.73;7.33;;;-2.20;95.80;;;;;;5044260;28;20554;-75
2020/12/27 06:54:48;;;;;;;8.23;7.33;;;-2.10;95.40;;;;;;5039460;28;20257;-73
2020/12/27 06:57:38;;;;;;;9.37;7.10;;;-2.10;95.30;;;;;;5041875;28;20274;-72
2020/12/27 07:00:27;;;;;;;8.50;6.47;;;-2.10;94.90;;;;;;5045045;28;20185;-72
2020/12/27 07:03:05;;;;;;;8.90;6.63;;;-2.10;94.30;;;;;;5040660;28;20201;-72
2020/12/27 07:05:34;;;;;;;8.83;7.20;;;-2.00;94.20;;;;;;5037861;28;20705;-74
2020/12/27 07:08:02;;;;;;;8.23;7.33;;;-2.00;94.10;;;;;;5046067;28;20231;-73
2020/12/27 07:10:30;;;;;;;10.20;6.87;;;-2.00;93.90;;;;;;5039793;28;20179;-73
2020/12/27 07:13:07;;;;;;;8.23;6.60;;;-1.90;93.80;;;;;;5037073;28;20200;-72
2020/12/27 07:15:33;;;;;;;8.97;7.83;;;-2.00;94.00;;;;;;5039988;28;20203;-72
2020/12/27 07:18:07;;;;;;;8.03;6.93;;;-2.00;94.30;;;;;;5042328;28;20690;-73
2020/12/27 07:20:33;;;;;;;8.20;7.10;;;-2.10;94.40;;;;;;5046181;28;20206;-74
2020/12/27 07:22:58;;;;;;;7.63;6.83;;;-2.10;94.50;;;;;;5041538;28;20196;-72
2020/12/27 07:25:24;;;;;;;11.03;7.53;;;-2.10;94.30;;;;;;5035497;28;20294;-73
2020/12/27 07:27:51;;;;;;;7.87;6.63;;;-2.00;94.50;;;;;;5049328;28;20193;-72
2020/12/27 07:30:19;;;;;;;9.27;7.43;;;-2.00;94.90;;;;;;5042969;28;20180;-70
2020/12/27 07:32:48;;;;;;;9.20;7.20;;;-2.00;95.20;;;;;;5044946;28;20217;-73
2020/12/27 07:35:13;;;;;;;9.03;7.23;;;-2.00;94.90;;;;;;5048439;28;20419;-72
2020/12/27 07:37:43;;;;;;;8.37;7.23;;;-1.90;94.80;;;;;;5043488;28;20191;-72
2020/12/27 07:40:11;;;;;;;8.33;6.83;;;-1.90;95.00;;;;;;5026312;28;20196;-73
2020/12/27 07:42:37;;;;;;;9.33;6.37;;;-1.80;94.90;;;;;;5042277;28;20206;-74
2020/12/27 07:45:10;;;;;;;9.83;7.23;;;-1.80;94.40;;;;;;5044026;28;20681;-73
2020/12/27 07:47:37;;;;;;;7.80;6.90;;;-1.80;94.20;;;;;;5042494;28;20182;-72
2020/12/27 07:50:19;;;;;;;9.57;7.03;;;-1.70;93.90;;;;;;5035116;28;20692;-72
2020/12/27 07:52:59;;;;;;;7.63;6.83;;;-1.70;94.20;;;;;;5042970;28;20290;-72
2020/12/27 07:55:36;;;;;;;7.83;6.43;;;-1.60;94.30;;;;;;5040025;28;20186;-74
2020/12/27 07:58:04;;;;;;;16.40;7.70;;;-1.50;93.80;;;;;;5042933;28;20183;-74
2020/12/27 08:00:32;;;;;;;8.80;7.03;;;-1.40;94.00;;;;;;5041022;28;20266;-74
2020/12/27 08:03:03;;;;;;;9.40;6.37;;;-1.40;94.00;;;;;;5043466;28;20203;-73
2020/12/27 08:05:28;;;;;;;8.13;7.27;;;-1.40;93.70;;;;;;5045687;28;20732;-73
2020/12/27 08:08:05;;;;;;;9.07;7.87;;;-1.20;93.00;;;;;;5043804;28;20194;-75
2020/12/27 08:10:31;;;;;;;9.73;7.13;;;-1.20;92.30;;;;;;5045715;28;20185;-74
2020/12/27 08:12:58;;;;;;;9.20;6.33;;;-1.10;92.00;;;;;;5041035;28;20713;-74
2020/12/27 08:15:29;;;;;;;7.23;6.47;;;-1.00;91.70;;;;;;5041556;28;20662;-73
2020/12/27 08:17:58;;;;;;;9.80;6.97;;;-0.90;91.40;;;;;;5039457;28;20182;-73
2020/12/27 08:20:24;;;;;;;8.70;6.80;;;-0.80;91.00;;;;;;5040779;28;20594;-73
2020/12/27 08:22:59;;;;;;;13.23;8.40;;;-0.70;90.20;;;;;;5021145;28;20196;-74
2020/12/27 08:25:25;;;;;;;13.13;9.17;;;-0.50;90.10;;;;;;5045777;28;20179;-74
2020/12/27 08:27:55;;;;;;;9.77;7.90;;;-0.50;89.10;;;;;;5046175;28;20274;-74
2020/12/27 08:30:21;;;;;;;6.87;6.17;;;-0.40;88.50;;;;;;5044819;28;20265;-74
2020/12/27 08:32:46;;;;;;;7.53;6.70;;;-0.30;87.60;;;;;;5046105;28;20219;-75
2020/12/27 08:35:27;;;;;;;8.50;7.00;;;-0.20;86.90;;;;;;5046612;28;20206;-75
2020/12/27 08:38:02;;;;;;;7.00;6.40;;;-0.20;86.40;;;;;;5046746;28;20558;-75
2020/12/27 08:40:35;;;;;;;7.67;6.60;;;-0.30;87.30;;;;;;5046952;28;20244;-73
2020/12/27 08:43:04;;;;;;;7.97;6.50;;;-0.30;88.00;;;;;;5047939;28;20195;-73
2020/12/27 08:45:36;;;;;;;7.57;6.77;;;-0.20;87.70;;;;;;5043775;28;20263;-72
2020/12/27 08:48:18;;;;;;;7.70;6.70;;;-0.20;87.60;;;;;;5046664;28;20270;-72
2020/12/27 08:50:45;;;;;;;7.83;5.90;;;-0.20;86.90;;;;;;5050042;28;20221;-72
2020/12/27 08:53:13;;;;;;;10.67;5.97;;;-0.20;86.10;;;;;;5046617;28;20229;-72
2020/12/27 08:55:40;;;;;;;8.07;6.10;;;-0.10;85.70;;;;;;5040601;28;20184;-73
2020/12/27 08:58:10;;;;;;;7.23;6.43;;;-0.10;86.20;;;;;;5021293;28;20178;-72
2020/12/27 09:00:37;;;;;;;8.90;6.53;;;0.00;86.10;;;;;;5023469;28;20680;-72
2020/12/27 09:03:06;;;;;;;7.27;6.17;;;0.10;85.80;;;;;;5043410;28;20197;-73
2020/12/27 09:05:33;;;;;;;10.43;7.03;;;0.10;84.70;;;;;;5044545;28;20244;-72
2020/12/27 09:08:00;;;;;;;7.50;6.67;;;0.20;84.50;;;;;;5039806;28;20233;-73
2020/12/27 09:10:27;;;;;;;7.77;6.97;;;0.30;83.80;;;;;;5027120;28;20172;-73
2020/12/27 09:12:56;;;;;;;8.60;7.07;;;0.40;83.60;;;;;;5042458;28;20192;-73
2020/12/27 09:15:26;;;;;;;7.30;6.60;;;0.50;82.20;;;;;;5043723;28;20182;-74
2020/12/27 09:17:56;;;;;;;7.00;6.30;;;0.60;80.80;;;;;;5054204;28;20172;-72
2020/12/27 09:20:22;;;;;;;7.13;6.43;;;0.80;80.60;;;;;;5073543;28;20171;-74
2020/12/27 09:22:49;;;;;;;7.10;6.17;;;0.90;79.60;;;;;;5059047;28;20204;-74
2020/12/27 09:25:20;;;;;;;9.03;6.40;;;0.90;79.30;;;;;;5049478;28;20209;-73
2020/12/27 09:27:47;;;;;;;7.53;6.40;;;1.10;78.00;;;;;;5028678;28;20198;-72
2020/12/27 09:30:24;;;;;;;10.67;6.30;;;1.20;77.20;;;;;;5050052;28;20192;-72
2020/12/27 09:32:58;;;;;;;6.37;5.13;;;1.30;77.00;;;;;;5041403;28;20200;-72
2020/12/27 09:35:23;;;;;;;7.97;5.67;;;1.40;73.50;;;;;;5043617;28;20192;-73
2020/12/27 09:37:49;;;;;;;6.10;5.13;;;1.50;73.80;;;;;;5031339;28;20210;-71
2020/12/27 09:40:19;;;;;;;8.70;5.47;;;1.60;74.40;;;;;;5038790;28;20180;-71
2020/12/27 09:42:47;;;;;;;5.80;5.20;;;1.60;75.80;;;;;;5042734;28;20214;-73
2020/12/27 09:45:24;;;;;;;8.37;5.67;;;1.50;76.50;;;;;;5047327;28;20176;-72
2020/12/27 09:47:54;;;;;;;7.47;5.63;;;1.50;78.20;;;;;;5047915;28;20672;-72
2020/12/27 09:50:37;;;;;;;7.00;5.50;;;1.40;79.70;;;;;;5049406;28;20211;-72
2020/12/27 09:53:04;;;;;;;6.40;5.40;;;1.60;79.50;;;;;;5045528;28;20309;-72
2020/12/27 09:55:31;;;;;;;8.53;6.60;;;1.80;77.60;;;;;;5046649;28;20239;-73
2020/12/27 09:57:56;;;;;;;7.07;5.73;;;1.90;76.20;;;;;;5031756;28;20204;-72
2020/12/27 10:00:23;;;;;;;7.90;6.50;;;2.20;75.00;;;;;;5031025;28;20654;-73
2020/12/27 10:02:48;;;;;;;7.73;6.30;;;2.40;73.70;;;;;;5032460;28;20201;-72
2020/12/27 10:05:14;;;;;;;6.47;5.80;;;2.20;71.80;;;;;;5049062;28;20875;-73
2020/12/27 10:07:41;;;;;;;6.80;6.10;;;2.30;72.20;;;;;;5045262;28;20237;-72
2020/12/27 10:10:09;;;;;;;7.17;6.47;;;2.30;72.10;;;;;;5042266;28;20266;-72
2020/12/27 10:12:35;;;;;;;9.80;6.17;;;2.20;72.50;;;;;;5030647;28;20233;-72
2020/12/27 10:15:01;;;;;;;6.53;5.90;;;2.00;73.10;;;;;;5044711;28;20211;-73
2020/12/27 10:17:27;;;;;;;10.63;8.73;;;2.00;75.20;;;;;;5046335;28;20201;-73
2020/12/27 10:19:52;;;;;;;11.70;8.87;;;1.80;76.30;;;;;;5046203;28;20174;-74
2020/12/27 10:22:19;;;;;;;14.93;11.50;;;1.70;78.50;;;;;;5046257;28;20660;-72
2020/12/27 10:24:45;;;;;;;8.20;7.40;;;1.70;78.60;;;;;;5047725;28;20187;-72
2020/12/27 10:27:10;;;;;;;10.07;8.57;;;1.60;79.60;;;;;;5046984;28;20199;-73
2020/12/27 10:29:37;;;;;;;7.57;6.83;;;1.50;79.90;;;;;;5042861;28;20180;-71
2020/12/27 10:32:05;;;;;;;7.97;7.20;;;1.50;80.20;;;;;;5044742;28;20226;-70
2020/12/27 10:34:31;;;;;;;7.93;7.10;;;1.50;79.80;;;;;;5045035;28;20221;-70
2020/12/27 10:36:58;;;;;;;7.97;7.17;;;1.50;79.80;;;;;;5038967;28;20174;-72
2020/12/27 10:39:24;;;;;;;8.63;7.73;;;1.50;80.60;;;;;;5043956;28;20187;-74
2020/12/27 10:41:51;;;;;;;13.40;8.47;;;1.60;80.40;;;;;;5046125;28;20199;-72
2020/12/27 10:44:18;;;;;;;13.00;10.57;;;1.70;80.50;;;;;;5032656;28;20200;-74
2020/12/27 10:46:44;;;;;;;11.50;9.57;;;1.70;80.20;;;;;;5039950;28;20184;-72
2020/12/27 10:49:11;;;;;;;11.97;9.90;;;1.80;80.00;;;;;;5046285;28;20188;-74
2020/12/27 10:51:38;;;;;;;12.07;8.83;;;1.90;80.40;;;;;;5023594;28;20190;-73
2020/12/27 10:54:04;;;;;;;11.63;9.70;;;1.90;81.20;;;;;;5034465;28;20211;-72
2020/12/27 10:56:31;;;;;;;9.97;7.67;;;1.90;79.90;;;;;;5043142;28;20703;-72
2020/12/27 10:58:57;;;;;;;17.53;11.60;;;2.00;79.90;;;;;;5042763;28;20212;-73
2020/12/27 11:01:23;;;;;;;16.10;12.30;;;1.90;80.20;;;;;;5029146;28;20189;-76
2020/12/27 11:03:49;;;;;;;11.73;9.30;;;1.90;79.90;;;;;;5022829;28;20221;-75
2020/12/27 11:06:15;;;;;;;14.20;10.80;;;2.00;78.70;;;;;;5040620;28;20591;-75
2020/12/27 11:08:40;;;;;;;11.40;9.23;;;1.80;79.30;;;;;;5042787;28;20176;-74
2020/12/27 11:11:06;;;;;;;10.13;9.03;;;1.80;80.30;;;;;;5034518;28;20757;-73
2020/12/27 11:13:32;;;;;;;7.73;6.93;;;1.80;80.70;;;;;;5045483;28;20696;-74
2020/12/27 11:15:57;;;;;;;15.43;11.10;;;1.80;78.30;;;;;;5041545;28;20188;-74
2020/12/27 11:18:23;;;;;;;9.80;7.77;;;1.80;78.80;;;;;;5037781;28;20191;-73
2020/12/27 11:20:48;;;;;;;8.43;7.00;;;1.80;79.70;;;;;;5040050;28;20192;-73
2020/12/27 11:23:14;;;;;;;9.80;8.43;;;1.80;80.30;;;;;;5044158;28;20197;-73
2020/12/27 11:25:40;;;;;;;10.17;8.83;;;1.80;81.80;;;;;;5047496;28;20191;-74
2020/12/27 11:28:05;;;;;;;8.80;7.90;;;1.80;82.50;;;;;;5047266;28;20189;-74
2020/12/27 11:30:31;;;;;;;9.67;8.27;;;1.90;82.40;;;;;;5044370;28;20646;-73
2020/12/27 11:32:56;;;;;;;11.37;8.27;;;1.80;82.90;;;;;;5043845;28;20269;-73
2020/12/27 11:35:22;;;;;;;8.53;7.73;;;1.80;84.60;;;;;;5027730;28;20252;-74
2020/12/27 11:37:50;;;;;;;8.10;7.30;;;1.90;85.30;;;;;;5045625;28;20179;-73
2020/12/27 11:40:16;;;;;;;9.97;8.83;;;1.90;85.00;;;;;;5045245;28;20195;-74
2020/12/27 11:42:41;;;;;;;8.60;7.80;;;1.90;85.20;;;;;;5038622;28;20346;-73
2020/12/27 11:45:07;;;;;;;9.60;7.10;;;1.80;86.00;;;;;;5040052;28;20195;-74
2020/12/27 11:47:33;;;;;;;8.33;7.53;;;1.80;86.70;;;;;;5043761;28;20211;-74
2020/12/27 11:49:59;;;;;;;8.47;7.60;;;1.80;88.00;;;;;;5041794;28;20199;-73
2020/12/27 11:52:25;;;;;;;11.63;7.97;;;1.80;88.50;;;;;;5040975;28;20267;-75
2020/12/27 11:54:54;;;;;;;9.97;7.93;;;1.80;88.80;;;;;;5043037;28;20239;-74
2020/12/27 11:57:20;;;;;;;8.80;7.93;;;1.80;89.10;;;;;;5046550;28;20666;-73
2020/12/27 11:59:45;;;;;;;14.77;10.67;;;1.90;88.20;;;;;;5016977;28;20213;-73
2020/12/27 12:02:11;;;;;;;13.77;11.03;;;1.90;88.70;;;;;;5044227;28;20237;-73
2020/12/27 12:04:36;;;;;;;8.03;7.27;;;2.00;88.60;;;;;;5044055;28;20237;-73
2020/12/27 12:07:02;;;;;;;12.27;9.87;;;2.00;87.10;;;;;;5046983;28;20206;-73
2020/12/27 12:09:28;;;;;;;9.53;8.33;;;2.10;87.10;;;;;;5046514;28;20180;-74
2020/12/27 12:11:54;;;;;;;14.00;9.87;;;2.20;85.50;;;;;;5043700;28;20195;-74
2020/12/27 12:14:19;;;;;;;10.80;8.93;;;2.20;86.20;;;;;;5046977;28;20271;-73
2020/12/27 12:16:45;;;;;;;12.90;9.70;;;2.20;87.10;;;;;;5041122;28;20270;-73
2020/12/27 12:19:10;;;;;;;7.30;6.60;;;2.30;85.50;;;;;;5024999;28;20186;-74
2020/12/27 12:21:36;;;;;;;7.30;6.60;;;2.20;85.80;;;;;;5041564;28;20206;-74
2020/12/27 12:24:02;;;;;;;7.50;6.80;;;2.30;85.30;;;;;;5046251;28;20208;-74
2020/12/27 12:26:29;;;;;;;8.60;7.70;;;2.20;86.40;;;;;;5048218;28;20179;-74
2020/12/27 12:28:56;;;;;;;10.53;7.27;;;2.20;86.50;;;;;;5043061;28;20562;-73
2020/12/27 12:31:22;;;;;;;11.70;9.40;;;2.20;86.60;;;;;;5030190;28;20206;-73
2020/12/27 12:33:49;;;;;;;8.60;7.80;;;2.20;86.50;;;;;;5047062;28;20207;-73
2020/12/27 12:36:16;;;;;;;7.30;6.47;;;2.20;87.10;;;;;;5048460;28;20220;-73
2020/12/27 12:38:43;;;;;;;7.37;6.47;;;2.20;86.30;;;;;;5051941;28;20238;-73
2020/12/27 12:41:10;;;;;;;7.33;6.20;;;2.20;86.70;;;;;;5045060;28;20284;-73
2020/12/27 12:43:37;;;;;;;7.00;6.33;;;2.20;86.20;;;;;;5040957;28;20198;-74
2020/12/27 12:46:03;;;;;;;11.00;6.70;;;2.20;86.60;;;;;;5026332;28;20621;-73
2020/12/27 12:48:29;;;;;;;6.90;6.20;;;2.10;86.20;;;;;;5042749;28;20266;-74
2020/12/27 12:50:54;;;;;;;6.60;5.53;;;2.20;85.90;;;;;;5045641;28;20195;-73